Time;durP1;ratioP1;P1;durP2;ratioP2;P2;SDS_P1;SDS_P2;PMS_P1;PMS_P2;Temp;Humidity;BMP_temperature;BMP_pressure;BME280_temperature;BME280_humidity;BME280_pressure;Samples;Min_cycle;Max_cycle;Signal;HPM_P1;HPM_P2
2021/07/29 00:00:36;;;;;;;2.03;1.92;;;19.00;78.40;;;;;;4970038;28;20073;-65
2021/07/29 00:03:02;;;;;;;2.72;2.17;;;19.00;78.50;;;;;;4969092;28;20039;-65
2021/07/29 00:05:31;;;;;;;2.25;2.05;;;19.00;78.30;;;;;;4970006;28;20093;-66
2021/07/29 00:07:57;;;;;;;2.42;2.00;;;19.00;78.30;;;;;;4969641;28;20038;-66
2021/07/29 00:10:23;;;;;;;2.33;2.13;;;19.10;78.20;;;;;;4966003;28;20054;-65
2021/07/29 00:12:49;;;;;;;3.92;2.40;;;19.00;78.40;;;;;;4970191;28;20034;-65
2021/07/29 00:15:16;;;;;;;3.05;2.55;;;19.10;78.50;;;;;;4969530;28;20026;-66
2021/07/29 00:20:16;;;;;;;1.92;1.83;;;19.00;78.90;;;;;;4970299;28;20045;-66
2021/07/29 00:22:43;;;;;;;2.80;1.95;;;19.00;79.00;;;;;;4968757;28;20450;-65
2021/07/29 00:25:13;;;;;;;3.03;1.83;;;19.00;79.10;;;;;;4968547;28;20841;-65
2021/07/29 00:27:43;;;;;;;2.00;1.90;;;19.00;79.10;;;;;;4968665;28;20038;-66
2021/07/29 00:30:10;;;;;;;2.28;2.08;;;19.00;79.50;;;;;;4968948;28;20717;-65
2021/07/29 00:32:36;;;;;;;1.98;1.88;;;19.00;79.40;;;;;;4967042;28;20038;-65
2021/07/29 00:35:04;;;;;;;3.03;2.13;;;19.00;79.50;;;;;;4969619;28;20034;-65
2021/07/29 00:37:30;;;;;;;3.50;2.33;;;19.00;79.60;;;;;;4969099;28;20031;-65
2021/07/29 00:39:56;;;;;;;2.33;2.10;;;19.00;79.60;;;;;;4969733;28;20026;-66
2021/07/29 00:42:21;;;;;;;2.28;2.08;;;19.00;79.60;;;;;;4967600;28;20042;-63
2021/07/29 00:44:47;;;;;;;2.17;2.00;;;19.00;79.50;;;;;;4968442;28;20030;-65
2021/07/29 00:47:16;;;;;;;2.22;2.03;;;19.00;80.40;;;;;;4965798;28;20038;-65
2021/07/29 00:49:42;;;;;;;3.13;2.08;;;19.00;79.80;;;;;;4968662;28;20026;-65
2021/07/29 00:52:08;;;;;;;2.83;2.28;;;19.10;79.60;;;;;;4969335;28;20046;-65
2021/07/29 00:54:35;;;;;;;2.13;1.95;;;19.10;79.70;;;;;;4968273;28;20441;-65
2021/07/29 00:57:02;;;;;;;2.40;2.20;;;19.10;79.60;;;;;;4968746;28;20774;-65
2021/07/29 00:59:28;;;;;;;2.53;2.33;;;19.10;79.70;;;;;;4969004;28;20974;-65
2021/07/29 01:01:54;;;;;;;2.40;2.20;;;19.10;79.60;;;;;;4967794;28;20053;-66
2021/07/29 01:04:20;;;;;;;2.58;2.35;;;19.10;79.60;;;;;;4969202;28;20042;-65
2021/07/29 01:06:45;;;;;;;2.65;1.92;;;19.20;79.60;;;;;;4969109;28;20027;-65
2021/07/29 01:09:11;;;;;;;2.65;2.22;;;19.20;79.60;;;;;;4968235;28;20039;-65
2021/07/29 01:11:42;;;;;;;2.03;1.85;;;19.20;79.60;;;;;;4967006;28;20081;-65
2021/07/29 01:14:09;;;;;;;2.80;1.92;;;19.20;79.60;;;;;;4967893;28;20500;-65
2021/07/29 01:16:35;;;;;;;2.05;1.95;;;19.20;79.60;;;;;;4967908;28;20074;-65
2021/07/29 01:19:02;;;;;;;2.63;1.80;;;19.30;79.80;;;;;;4968919;28;20037;-65
2021/07/29 01:21:31;;;;;;;2.25;1.88;;;19.30;79.60;;;;;;4968044;28;20043;-65
2021/07/29 01:23:57;;;;;;;5.20;2.08;;;19.30;79.50;;;;;;4967393;28;20429;-66
2021/07/29 01:26:25;;;;;;;2.25;1.80;;;19.30;79.40;;;;;;4967697;28;20494;-65
2021/07/29 01:28:51;;;;;;;2.72;1.92;;;19.30;79.60;;;;;;4967945;28;20058;-65
2021/07/29 01:31:17;;;;;;;2.38;2.10;;;19.30;79.40;;;;;;4968101;28;20102;-65
2021/07/29 01:33:43;;;;;;;4.28;2.08;;;19.30;79.30;;;;;;4968848;28;21818;-65
2021/07/29 01:36:09;;;;;;;2.85;2.03;;;19.40;79.40;;;;;;4967912;28;20609;-65
2021/07/29 01:38:35;;;;;;;2.17;2.03;;;19.40;79.40;;;;;;4967429;28;20031;-65
2021/07/29 01:41:04;;;;;;;2.50;2.30;;;19.40;79.40;;;;;;4967793;28;20213;-65
2021/07/29 01:43:31;;;;;;;4.05;2.30;;;19.30;79.50;;;;;;4959475;28;20501;-65
2021/07/29 01:45:58;;;;;;;2.53;2.33;;;19.40;79.50;;;;;;4967388;28;20031;-65
2021/07/29 01:48:24;;;;;;;2.47;2.28;;;19.40;79.60;;;;;;4967706;28;20035;-65
2021/07/29 01:50:49;;;;;;;2.20;1.90;;;19.30;79.40;;;;;;4969611;28;20035;-65
2021/07/29 01:53:15;;;;;;;2.42;2.10;;;19.40;79.40;;;;;;4966903;28;20409;-65
2021/07/29 01:55:45;;;;;;;2.10;2.00;;;19.40;79.50;;;;;;4968268;28;20490;-65
2021/07/29 01:58:11;;;;;;;2.33;2.00;;;19.40;79.80;;;;;;4967198;28;20511;-65
2021/07/29 02:00:38;;;;;;;1.92;1.83;;;19.40;79.50;;;;;;4969560;28;20026;-65
2021/07/29 02:03:04;;;;;;;2.38;2.15;;;19.40;79.30;;;;;;4971713;28;20121;-65
2021/07/29 02:05:30;;;;;;;2.78;2.30;;;19.40;79.20;;;;;;4972526;28;20147;-65
2021/07/29 02:07:57;;;;;;;3.15;2.38;;;19.40;79.20;;;;;;4971526;28;20035;-65
2021/07/29 02:10:22;;;;;;;4.78;2.15;;;19.40;79.20;;;;;;4969336;28;20041;-65
2021/07/29 02:12:49;;;;;;;3.42;2.17;;;19.40;79.10;;;;;;4971977;28;20031;-65
2021/07/29 02:15:15;;;;;;;2.88;2.10;;;19.30;79.10;;;;;;4968804;28;20042;-65
2021/07/29 02:17:40;;;;;;;4.68;2.65;;;19.30;79.00;;;;;;4971379;28;20042;-66
2021/07/29 02:20:07;;;;;;;3.33;1.90;;;19.40;79.00;;;;;;4972175;28;20030;-65
2021/07/29 02:22:32;;;;;;;2.83;2.28;;;19.30;78.90;;;;;;4970621;28;20048;-65
2021/07/29 02:24:58;;;;;;;2.53;2.30;;;19.30;78.80;;;;;;4971374;28;20031;-65
2021/07/29 02:27:24;;;;;;;2.40;2.20;;;19.30;78.90;;;;;;4972109;28;20185;-66
2021/07/29 02:29:53;;;;;;;3.75;2.35;;;19.30;78.90;;;;;;4971304;28;20121;-65
2021/07/29 02:32:20;;;;;;;2.58;2.38;;;19.30;79.10;;;;;;4969072;28;20189;-65
2021/07/29 02:34:46;;;;;;;6.25;2.60;;;19.20;78.90;;;;;;4971528;28;20154;-65
2021/07/29 02:37:12;;;;;;;3.40;2.40;;;19.20;79.00;;;;;;4971124;28;20039;-65
2021/07/29 02:39:40;;;;;;;2.65;2.45;;;19.20;79.10;;;;;;4970948;28;20039;-65
2021/07/29 02:42:07;;;;;;;4.20;2.38;;;19.20;79.10;;;;;;4970232;28;20139;-65
2021/07/29 02:44:33;;;;;;;4.22;2.60;;;19.10;79.20;;;;;;4970374;28;20045;-65
2021/07/29 02:46:59;;;;;;;3.75;2.25;;;19.10;79.30;;;;;;4970821;28;20027;-65
2021/07/29 02:49:25;;;;;;;3.92;2.35;;;19.10;79.50;;;;;;4971309;28;20510;-65
2021/07/29 02:51:51;;;;;;;3.83;2.40;;;19.10;79.50;;;;;;4971487;28;20132;-65
2021/07/29 02:54:16;;;;;;;2.20;2.00;;;19.10;80.40;;;;;;4971044;28;20066;-65
2021/07/29 02:56:42;;;;;;;3.97;2.22;;;19.00;79.60;;;;;;4969352;28;20042;-66
2021/07/29 02:59:08;;;;;;;3.63;2.40;;;19.00;79.50;;;;;;4971289;28;20405;-65
2021/07/29 03:01:33;;;;;;;3.33;2.40;;;19.00;79.50;;;;;;4969817;28;20054;-65
2021/07/29 03:03:59;;;;;;;2.50;2.30;;;19.00;79.60;;;;;;4970521;28;20039;-65
2021/07/29 03:06:24;;;;;;;3.72;2.45;;;19.00;79.70;;;;;;4968790;28;20569;-65
2021/07/29 03:08:50;;;;;;;2.33;2.13;;;19.00;80.00;;;;;;4968219;28;20113;-65
2021/07/29 03:11:16;;;;;;;2.95;2.33;;;19.00;80.00;;;;;;4968539;28;20035;-66
2021/07/29 03:13:42;;;;;;;4.22;2.38;;;19.00;80.00;;;;;;4970109;28;20034;-65
2021/07/29 03:16:07;;;;;;;4.43;2.42;;;19.00;80.10;;;;;;4970572;28;20109;-65
2021/07/29 03:18:33;;;;;;;4.00;2.30;;;19.00;80.00;;;;;;4970486;28;20041;-65
2021/07/29 03:20:59;;;;;;;2.92;2.30;;;19.00;80.10;;;;;;4970512;28;20030;-65
2021/07/29 03:23:26;;;;;;;3.33;2.20;;;19.00;80.10;;;;;;4969737;28;20046;-65
2021/07/29 03:25:53;;;;;;;2.50;2.30;;;19.00;80.00;;;;;;4971519;28;20038;-65
2021/07/29 03:28:19;;;;;;;3.38;2.15;;;19.00;81.00;;;;;;4971295;28;20049;-65
2021/07/29 03:30:45;;;;;;;3.42;2.47;;;19.00;80.30;;;;;;4970182;28;20043;-65
2021/07/29 03:33:11;;;;;;;3.92;3.10;;;19.00;80.20;;;;;;4969013;28;20042;-65
2021/07/29 03:35:38;;;;;;;7.97;3.28;;;19.00;80.10;;;;;;4970806;28;20047;-65
2021/07/29 03:38:04;;;;;;;8.38;4.15;;;19.00;80.00;;;;;;4971085;28;20114;-65
2021/07/29 03:40:30;;;;;;;6.45;3.85;;;19.00;80.00;;;;;;4970354;28;20070;-65
2021/07/29 03:42:59;;;;;;;9.85;4.75;;;19.00;80.00;;;;;;4971141;28;20071;-65
2021/07/29 03:45:25;;;;;;;6.25;3.92;;;19.00;80.10;;;;;;4970965;28;20047;-65
2021/07/29 03:47:50;;;;;;;5.70;3.45;;;19.00;80.20;;;;;;4970118;28;20094;-65
2021/07/29 03:50:16;;;;;;;3.65;2.97;;;19.00;80.10;;;;;;4969484;28;20030;-65
2021/07/29 03:52:42;;;;;;;7.03;3.33;;;19.00;80.10;;;;;;4977881;28;20070;-65
2021/07/29 03:55:08;;;;;;;3.85;2.50;;;19.00;80.10;;;;;;4971005;28;20054;-65
2021/07/29 03:57:33;;;;;;;4.28;2.78;;;19.00;80.20;;;;;;4969349;28;20039;-65
2021/07/29 04:00:01;;;;;;;2.50;2.30;;;19.00;80.30;;;;;;4967500;28;20031;-65
2021/07/29 04:02:26;;;;;;;3.72;2.25;;;19.00;80.50;;;;;;4968532;28;20039;-65
2021/07/29 04:04:52;;;;;;;2.60;2.35;;;19.00;80.50;;;;;;4969047;28;20048;-65
2021/07/29 04:07:17;;;;;;;2.42;2.22;;;19.00;80.50;;;;;;4971155;28;20055;-66
2021/07/29 04:09:43;;;;;;;3.08;2.30;;;19.00;80.50;;;;;;4969776;28;20031;-65
2021/07/29 04:12:09;;;;;;;2.47;2.25;;;19.00;80.60;;;;;;4966030;28;20130;-65
2021/07/29 04:14:34;;;;;;;2.97;2.38;;;19.00;80.50;;;;;;4968440;28;20042;-65
2021/07/29 04:17:01;;;;;;;3.20;2.40;;;19.00;80.70;;;;;;4969027;28;20108;-66
2021/07/29 04:19:31;;;;;;;3.10;2.25;;;19.00;80.80;;;;;;4968395;28;20576;-65
2021/07/29 04:21:56;;;;;;;4.78;2.38;;;19.00;81.00;;;;;;4969607;28;20121;-65
2021/07/29 04:24:22;;;;;;;4.35;2.70;;;19.10;81.00;;;;;;4967876;28;20110;-64
2021/07/29 04:26:47;;;;;;;4.55;2.70;;;19.10;80.90;;;;;;4970414;28;20027;-65
2021/07/29 04:29:13;;;;;;;3.00;2.38;;;19.10;81.00;;;;;;4968867;28;20058;-65
2021/07/29 04:31:39;;;;;;;4.07;2.70;;;19.10;81.00;;;;;;4969441;28;20437;-65
2021/07/29 04:34:05;;;;;;;5.32;2.90;;;19.10;81.00;;;;;;4965093;28;20041;-65
2021/07/29 04:36:30;;;;;;;6.75;2.97;;;19.10;81.10;;;;;;4965553;28;20097;-65
2021/07/29 04:38:56;;;;;;;6.25;3.00;;;19.10;81.20;;;;;;4967443;28;20030;-65
2021/07/29 04:41:22;;;;;;;6.45;2.92;;;19.10;81.20;;;;;;4968018;28;20041;-65
2021/07/29 04:43:47;;;;;;;8.13;3.42;;;19.10;81.30;;;;;;4967694;28;20465;-65
2021/07/29 04:46:13;;;;;;;5.15;2.83;;;19.10;81.50;;;;;;4968663;28;20035;-66
2021/07/29 04:48:39;;;;;;;7.00;3.13;;;19.10;81.70;;;;;;4967560;28;20041;-67
2021/07/29 04:51:06;;;;;;;7.13;2.72;;;19.10;81.70;;;;;;4966151;28;20026;-65
2021/07/29 04:53:32;;;;;;;4.03;2.90;;;19.20;82.00;;;;;;4968001;28;20035;-65
2021/07/29 04:55:58;;;;;;;7.10;3.10;;;19.20;82.00;;;;;;4965175;28;20089;-65
2021/07/29 04:58:24;;;;;;;3.28;2.97;;;19.20;82.00;;;;;;4967823;28;20043;-66
2021/07/29 05:00:50;;;;;;;3.53;2.90;;;19.20;82.10;;;;;;4964522;28;20101;-66
2021/07/29 05:03:16;;;;;;;3.90;2.92;;;19.20;82.40;;;;;;4965229;28;20038;-65
2021/07/29 05:05:41;;;;;;;5.30;3.08;;;19.30;82.30;;;;;;4976105;28;20521;-64
2021/07/29 05:08:07;;;;;;;5.47;2.63;;;19.30;82.30;;;;;;4965394;28;20046;-66
2021/07/29 05:10:32;;;;;;;4.13;2.97;;;19.30;82.40;;;;;;4967390;28;20501;-66
2021/07/29 05:12:58;;;;;;;5.60;2.80;;;19.30;82.30;;;;;;4964846;28;20042;-65
2021/07/29 05:15:23;;;;;;;5.43;3.15;;;19.40;82.40;;;;;;4968391;28;20047;-65
2021/07/29 05:17:54;;;;;;;5.82;3.03;;;19.40;82.40;;;;;;4967945;28;20051;-65
2021/07/29 05:20:23;;;;;;;5.35;2.70;;;19.40;82.50;;;;;;4967512;28;20098;-66
2021/07/29 05:22:49;;;;;;;5.32;3.08;;;19.40;82.60;;;;;;4968186;28;20035;-65
2021/07/29 05:25:24;;;;;;;4.78;2.72;;;19.50;82.60;;;;;;4969985;28;20047;-65
2021/07/29 05:27:50;;;;;;;;;;;19.50;82.50;;;;;;4967617;28;20046;-65
2021/07/29 05:30:17;;;;;;;4.03;2.60;;;19.60;82.70;;;;;;4968213;28;20278;-65
2021/07/29 05:32:43;;;;;;;3.10;2.80;;;19.60;82.00;;;;;;4966544;28;20047;-65
2021/07/29 05:35:09;;;;;;;4.07;3.15;;;19.60;82.00;;;;;;4968288;28;20039;-66
2021/07/29 05:37:34;;;;;;;3.97;2.80;;;19.70;82.10;;;;;;4961600;28;20034;-65
2021/07/29 05:40:00;;;;;;;7.13;2.78;;;19.70;82.00;;;;;;4965340;28;20035;-66
2021/07/29 05:42:26;;;;;;;2.72;2.47;;;19.70;81.90;;;;;;4966687;28;20031;-65
2021/07/29 05:44:51;;;;;;;3.50;2.75;;;19.80;81.90;;;;;;4965571;28;20097;-65
2021/07/29 05:47:20;;;;;;;2.70;2.50;;;19.80;81.70;;;;;;4967083;28;20035;-65
2021/07/29 05:49:46;;;;;;;2.70;2.50;;;19.90;81.80;;;;;;4964692;28;20117;-65
2021/07/29 05:52:11;;;;;;;4.05;3.00;;;19.90;81.70;;;;;;4965957;28;20121;-65
2021/07/29 05:54:37;;;;;;;3.90;2.53;;;19.90;81.50;;;;;;4968742;28;20734;-65
2021/07/29 05:57:03;;;;;;;4.95;2.88;;;20.00;81.40;;;;;;4967776;28;20030;-65
2021/07/29 05:59:28;;;;;;;3.90;2.80;;;20.10;81.50;;;;;;4966879;28;20050;-66
2021/07/29 06:01:54;;;;;;;3.75;2.70;;;20.10;81.50;;;;;;4965875;28;20520;-65
2021/07/29 06:04:19;;;;;;;7.10;2.70;;;20.20;81.30;;;;;;4964698;28;20047;-65
2021/07/29 06:06:45;;;;;;;2.78;2.45;;;20.20;81.00;;;;;;4966857;28;20031;-65
2021/07/29 06:09:10;;;;;;;6.70;2.75;;;20.20;80.80;;;;;;4967222;28;20058;-65
2021/07/29 06:11:36;;;;;;;2.60;2.40;;;20.20;80.50;;;;;;4965946;28;20117;-65
2021/07/29 06:14:02;;;;;;;2.90;2.70;;;20.30;80.60;;;;;;4966806;28;20038;-66
2021/07/29 06:16:29;;;;;;;3.00;2.75;;;20.30;80.30;;;;;;4967522;28;20410;-65
2021/07/29 06:19:05;;;;;;;4.35;2.55;;;20.30;80.10;;;;;;4968908;28;20031;-65
2021/07/29 06:21:32;;;;;;;3.25;2.50;;;20.40;80.10;;;;;;4966112;28;20097;-65
2021/07/29 06:23:57;;;;;;;3.50;2.90;;;20.40;80.10;;;;;;4968090;28;20035;-66
2021/07/29 06:26:23;;;;;;;5.20;2.70;;;20.40;80.10;;;;;;4966205;28;20057;-65
2021/07/29 06:28:49;;;;;;;2.85;2.65;;;20.50;80.20;;;;;;4968581;28;20498;-65
2021/07/29 06:31:14;;;;;;;2.33;2.20;;;20.50;80.00;;;;;;4967171;28;20046;-65
2021/07/29 06:33:40;;;;;;;3.05;2.38;;;20.50;80.10;;;;;;4967617;28;20398;-65
2021/07/29 06:36:06;;;;;;;2.67;2.08;;;20.60;80.30;;;;;;4966938;28;20570;-65
2021/07/29 06:38:32;;;;;;;2.50;2.30;;;20.60;80.10;;;;;;4966810;28;20468;-65
2021/07/29 06:40:57;;;;;;;2.45;2.25;;;20.70;79.60;;;;;;4967080;28;20504;-65
2021/07/29 06:43:23;;;;;;;3.53;2.45;;;20.70;79.30;;;;;;4968434;28;20050;-65
2021/07/29 06:45:49;;;;;;;2.13;2.03;;;20.80;79.10;;;;;;4971498;28;20512;-65
2021/07/29 06:48:16;;;;;;;3.58;2.47;;;20.90;78.70;;;;;;4969937;28;20038;-65
2021/07/29 06:50:42;;;;;;;2.20;1.95;;;20.90;78.40;;;;;;4964615;28;20515;-65
2021/07/29 06:53:08;;;;;;;5.75;2.20;;;21.00;78.10;;;;;;4971097;28;20051;-65
2021/07/29 06:55:33;;;;;;;2.55;2.20;;;21.00;77.90;;;;;;4968955;28;20418;-65
2021/07/29 06:57:59;;;;;;;3.80;2.22;;;21.00;77.30;;;;;;4970452;28;20027;-65
2021/07/29 07:00:25;;;;;;;2.38;2.00;;;21.00;77.50;;;;;;4968960;28;20050;-65
2021/07/29 07:02:50;;;;;;;2.20;2.10;;;21.10;77.30;;;;;;4964847;28;20047;-65
2021/07/29 07:05:16;;;;;;;3.58;2.10;;;21.10;77.30;;;;;;4970708;28;20062;-65
2021/07/29 07:07:41;;;;;;;7.72;1.95;;;21.10;76.80;;;;;;4969573;28;20118;-65
2021/07/29 07:10:07;;;;;;;3.47;2.50;;;21.10;76.60;;;;;;4965898;28;20058;-66
2021/07/29 07:12:35;;;;;;;2.30;2.10;;;21.20;76.20;;;;;;4968583;28;20142;-65
2021/07/29 07:15:01;;;;;;;2.83;2.20;;;21.30;76.20;;;;;;4971594;28;20086;-65
2021/07/29 07:17:26;;;;;;;2.33;2.17;;;21.30;76.00;;;;;;4970237;28;20077;-65
2021/07/29 07:19:56;;;;;;;5.25;1.85;;;21.30;75.80;;;;;;4966632;28;20038;-65
2021/07/29 07:22:21;;;;;;;2.45;2.00;;;21.40;75.40;;;;;;4968807;28;20132;-66
2021/07/29 07:24:47;;;;;;;3.03;2.17;;;21.40;75.00;;;;;;4968923;28;20509;-65
2021/07/29 07:27:12;;;;;;;2.13;1.92;;;21.50;75.00;;;;;;4968116;28;20039;-66
2021/07/29 07:29:40;;;;;;;2.08;1.90;;;21.60;74.20;;;;;;4971365;28;20186;-66
2021/07/29 07:32:06;;;;;;;2.38;2.17;;;21.60;73.90;;;;;;4970194;28;20548;-65
2021/07/29 07:34:31;;;;;;;2.35;2.08;;;21.60;74.00;;;;;;4969615;28;20042;-65
2021/07/29 07:36:58;;;;;;;2.55;2.17;;;21.70;73.50;;;;;;4969060;28;20578;-65
2021/07/29 07:39:24;;;;;;;2.42;2.22;;;21.70;72.90;;;;;;4969458;28;20402;-66
2021/07/29 07:41:51;;;;;;;2.03;1.88;;;21.80;72.50;;;;;;4966845;28;20501;-65
2021/07/29 07:44:16;;;;;;;2.25;2.10;;;21.80;73.00;;;;;;4969970;28;20502;-66
2021/07/29 07:46:42;;;;;;;2.38;2.17;;;21.90;72.40;;;;;;4971343;28;20074;-66
2021/07/29 07:49:08;;;;;;;2.08;1.92;;;22.00;71.80;;;;;;4967701;28;20035;-65
2021/07/29 07:51:33;;;;;;;2.28;2.08;;;22.00;71.60;;;;;;4967564;28;20401;-66
2021/07/29 07:53:59;;;;;;;2.35;2.15;;;22.10;71.30;;;;;;4970312;28;20101;-65
2021/07/29 07:56:24;;;;;;;1.90;1.77;;;22.10;71.30;;;;;;4965442;28;20043;-65
2021/07/29 07:58:50;;;;;;;2.42;2.22;;;22.20;70.90;;;;;;4968494;28;20101;-66
2021/07/29 08:01:16;;;;;;;2.70;2.42;;;22.20;70.40;;;;;;4969980;28;20038;-65
2021/07/29 08:03:42;;;;;;;2.35;2.15;;;22.20;70.40;;;;;;4967401;28;20054;-65
2021/07/29 08:06:07;;;;;;;2.60;2.30;;;22.30;70.00;;;;;;4969240;28;20047;-65
2021/07/29 08:08:33;;;;;;;3.00;2.70;;;22.30;69.30;;;;;;4968865;28;20058;-66
2021/07/29 08:10:59;;;;;;;3.28;2.25;;;22.30;68.90;;;;;;4966456;28;20122;-66
2021/07/29 08:13:24;;;;;;;2.40;2.20;;;22.40;68.50;;;;;;4969371;28;20116;-66
2021/07/29 08:15:50;;;;;;;2.40;2.20;;;22.40;68.50;;;;;;4970893;28;20437;-66
2021/07/29 08:18:16;;;;;;;2.55;2.35;;;22.50;68.80;;;;;;4964923;28;20046;-65
2021/07/29 08:20:42;;;;;;;2.35;2.13;;;22.50;68.80;;;;;;4968577;28;20039;-66
2021/07/29 08:23:08;;;;;;;3.60;2.15;;;22.60;68.50;;;;;;4967093;28;20540;-65
2021/07/29 08:25:35;;;;;;;3.35;2.38;;;22.70;68.20;;;;;;4969346;28;20038;-66
2021/07/29 08:28:01;;;;;;;3.17;2.13;;;22.80;67.30;;;;;;4966982;28;20452;-66
2021/07/29 08:30:27;;;;;;;12.68;11.30;;;22.90;66.20;;;;;;4968904;28;20039;-65
2021/07/29 08:32:52;;;;;;;18.83;14.27;;;22.90;65.50;;;;;;4968449;28;20046;-66
2021/07/29 08:35:18;;;;;;;4.80;4.40;;;23.00;65.20;;;;;;4969004;28;20061;-66
2021/07/29 08:37:48;;;;;;;3.47;2.88;;;23.00;65.00;;;;;;4967888;28;20035;-66
2021/07/29 08:40:19;;;;;;;2.53;2.30;;;23.10;63.30;;;;;;4968404;28;20557;-65
2021/07/29 08:42:45;;;;;;;2.83;2.40;;;23.20;63.80;;;;;;4966468;28;21806;-65
2021/07/29 08:45:11;;;;;;;3.75;2.50;;;23.20;64.60;;;;;;4968782;28;20034;-65
2021/07/29 08:47:37;;;;;;;2.92;2.35;;;23.20;63.90;;;;;;4968834;28;20418;-66
2021/07/29 08:50:05;;;;;;;2.90;2.22;;;23.30;62.50;;;;;;4967757;28;20445;-66
2021/07/29 08:52:32;;;;;;;2.38;2.17;;;23.30;61.50;;;;;;4966684;28;20039;-65
2021/07/29 08:54:58;;;;;;;2.78;2.15;;;23.30;62.10;;;;;;4968849;28;20517;-66
2021/07/29 08:57:32;;;;;;;2.45;2.25;;;23.30;61.50;;;;;;4966858;28;20572;-66
2021/07/29 09:00:09;;;;;;;2.88;2.47;;;23.20;60.40;;;;;;4977294;28;20031;-65
2021/07/29 09:02:34;;;;;;;2.75;2.33;;;23.20;61.20;;;;;;4967604;28;20493;-66
2021/07/29 09:05:10;;;;;;;5.53;2.70;;;23.20;62.40;;;;;;4967552;28;20027;-66
2021/07/29 09:07:36;;;;;;;2.72;2.35;;;23.30;61.80;;;;;;4968333;28;20026;-66
2021/07/29 09:10:16;;;;;;;2.60;2.40;;;23.30;62.60;;;;;;4966881;28;20128;-65
2021/07/29 09:12:42;;;;;;;2.70;2.50;;;23.40;62.10;;;;;;4966636;28;20038;-66
2021/07/29 09:15:19;;;;;;;2.30;2.08;;;23.40;62.40;;;;;;4969847;28;20039;-66
2021/07/29 09:17:45;;;;;;;2.45;2.25;;;23.50;61.90;;;;;;4968583;28;20035;-66
2021/07/29 09:20:17;;;;;;;2.60;2.40;;;23.60;62.20;;;;;;4964394;28;20689;-66
2021/07/29 09:22:43;;;;;;;5.00;2.67;;;23.60;59.80;;;;;;4966885;28;20058;-66
2021/07/29 09:25:09;;;;;;;2.60;2.40;;;23.70;61.30;;;;;;4965059;28;20517;-65
2021/07/29 09:27:38;;;;;;;2.58;2.35;;;23.70;59.10;;;;;;4969567;28;20090;-66
2021/07/29 09:30:18;;;;;;;3.83;2.30;;;23.70;58.80;;;;;;4966609;28;20110;-66
2021/07/29 09:33:02;;;;;;;3.78;2.53;;;23.70;57.30;;;;;;4965340;28;20069;-66
2021/07/29 09:35:31;;;;;;;3.22;2.30;;;23.80;58.10;;;;;;4966453;28;20513;-66
2021/07/29 09:38:03;;;;;;;2.45;2.13;;;23.80;58.80;;;;;;4968226;28;20061;-66
2021/07/29 09:40:55;;;;;;;4.55;2.50;;;23.90;59.80;;;;;;4967341;28;20166;-65
2021/07/29 09:43:23;;;;;;;2.88;2.35;;;24.00;58.50;;;;;;4957861;28;20046;-66
2021/07/29 09:45:52;;;;;;;2.60;2.40;;;24.10;57.60;;;;;;4969195;28;20406;-66
2021/07/29 09:48:21;;;;;;;2.40;2.20;;;24.10;57.20;;;;;;4968924;28;20035;-66
2021/07/29 09:50:47;;;;;;;2.85;2.65;;;24.20;57.30;;;;;;4965655;28;20034;-66
2021/07/29 09:53:13;;;;;;;2.20;2.00;;;24.30;57.80;;;;;;4967691;28;20118;-66
2021/07/29 09:55:39;;;;;;;2.40;2.20;;;24.30;57.40;;;;;;4968823;28;20038;-66
2021/07/29 09:58:05;;;;;;;2.63;2.42;;;24.40;57.80;;;;;;4968623;28;20038;-66
2021/07/29 10:00:36;;;;;;;2.38;2.17;;;24.40;58.00;;;;;;4965840;28;20720;-66
2021/07/29 10:03:07;;;;;;;2.42;2.22;;;24.50;58.00;;;;;;4967324;28;20501;-66
2021/07/29 10:05:42;;;;;;;3.40;2.33;;;24.60;57.30;;;;;;4969102;28;20066;-66
2021/07/29 10:08:15;;;;;;;2.33;2.13;;;24.70;57.00;;;;;;4965082;28;20039;-66
2021/07/29 10:10:43;;;;;;;2.65;2.45;;;24.70;56.80;;;;;;4966780;28;20570;-66
2021/07/29 10:13:10;;;;;;;3.63;2.20;;;24.70;56.90;;;;;;4965794;28;20043;-66
2021/07/29 10:15:41;;;;;;;2.67;2.47;;;24.70;56.90;;;;;;4967805;28;20039;-66
2021/07/29 10:18:08;;;;;;;2.97;2.40;;;24.70;55.90;;;;;;4966662;28;20390;-66
2021/07/29 10:20:35;;;;;;;2.50;2.30;;;24.80;56.10;;;;;;4972725;28;20553;-66
2021/07/29 10:23:13;;;;;;;2.63;2.42;;;24.80;56.70;;;;;;4970073;28;20094;-65
2021/07/29 10:26:06;;;;;;;2.65;2.45;;;24.80;54.50;;;;;;4972123;28;20039;-66
2021/07/29 10:28:38;;;;;;;2.63;2.28;;;24.90;53.90;;;;;;4969031;28;20035;-66
2021/07/29 10:31:05;;;;;;;3.72;2.47;;;24.90;55.00;;;;;;4971864;28;20042;-66
2021/07/29 10:33:31;;;;;;;3.60;2.55;;;25.00;54.00;;;;;;4971504;28;20410;-66
2021/07/29 10:35:58;;;;;;;2.53;2.33;;;25.00;54.10;;;;;;4972420;28;20039;-66
2021/07/29 10:38:39;;;;;;;4.05;2.40;;;25.00;54.30;;;;;;4969793;28;20410;-65
2021/07/29 10:41:13;;;;;;;5.40;2.60;;;25.10;54.00;;;;;;4972162;28;20568;-65
2021/07/29 10:43:42;;;;;;;2.58;2.40;;;25.10;54.40;;;;;;4971328;28;20538;-66
2021/07/29 10:46:11;;;;;;;3.92;2.70;;;25.20;54.50;;;;;;4970896;28;20046;-66
2021/07/29 10:48:49;;;;;;;4.55;2.65;;;25.30;54.50;;;;;;4970107;28;20070;-66
2021/07/29 10:51:23;;;;;;;11.35;2.90;;;25.30;52.80;;;;;;4971967;28;20039;-66
2021/07/29 10:53:52;;;;;;;2.85;2.60;;;25.40;52.60;;;;;;4971662;28;20037;-66
2021/07/29 10:56:20;;;;;;;2.95;2.65;;;25.40;52.90;;;;;;4970894;28;20096;-66
2021/07/29 10:58:50;;;;;;;2.92;2.40;;;25.50;53.10;;;;;;4969822;28;20109;-66
2021/07/29 11:01:17;;;;;;;3.08;2.60;;;25.50;52.70;;;;;;4969404;28;21441;-66
2021/07/29 11:03:54;;;;;;;2.45;2.30;;;25.50;53.10;;;;;;4969709;28;20039;-66
2021/07/29 11:06:35;;;;;;;3.05;2.65;;;25.50;53.60;;;;;;4968695;28;20042;-66
2021/07/29 11:09:09;;;;;;;3.28;2.40;;;25.50;52.10;;;;;;4968405;28;20338;-66
2021/07/29 11:11:43;;;;;;;2.45;2.25;;;25.50;51.70;;;;;;4968557;28;20046;-66
2021/07/29 11:14:09;;;;;;;2.97;2.67;;;25.50;52.40;;;;;;4967798;28;20039;-66
2021/07/29 11:16:35;;;;;;;2.40;2.20;;;25.50;53.20;;;;;;4970270;28;20686;-66
2021/07/29 11:19:03;;;;;;;2.53;2.30;;;25.50;53.20;;;;;;4979393;28;20322;-66
2021/07/29 11:21:29;;;;;;;3.55;2.70;;;25.50;53.00;;;;;;4970834;28;20034;-66
2021/07/29 11:23:55;;;;;;;3.28;2.40;;;25.60;53.30;;;;;;4967418;28;20089;-66
2021/07/29 11:26:21;;;;;;;5.78;2.10;;;25.60;52.90;;;;;;4970602;28;20068;-66
2021/07/29 11:29:06;;;;;;;2.80;2.60;;;25.60;53.30;;;;;;4970290;28;20054;-66
2021/07/29 11:31:35;;;;;;;2.00;1.90;;;25.60;52.70;;;;;;4968734;28;20050;-66
2021/07/29 11:34:01;;;;;;;3.95;2.65;;;25.70;53.60;;;;;;4967600;28;20055;-66
2021/07/29 11:36:29;;;;;;;3.15;2.80;;;25.70;53.10;;;;;;4969853;28;20572;-66
2021/07/29 11:39:07;;;;;;;3.70;2.83;;;25.70;53.50;;;;;;4970260;28;20409;-66
2021/07/29 11:41:58;;;;;;;2.53;2.15;;;25.70;52.00;;;;;;4969874;28;20027;-66
2021/07/29 11:44:40;;;;;;;2.88;2.53;;;25.70;51.20;;;;;;4969412;28;20045;-65
2021/07/29 11:47:05;;;;;;;2.53;2.33;;;25.80;50.10;;;;;;4970909;28;20093;-66
2021/07/29 11:49:43;;;;;;;2.10;2.00;;;25.80;51.90;;;;;;4970676;28;20038;-66
2021/07/29 11:52:10;;;;;;;2.42;2.28;;;25.80;51.70;;;;;;4969323;28;20027;-66
2021/07/29 11:54:36;;;;;;;2.55;2.35;;;25.80;52.00;;;;;;4969343;28;20508;-66
2021/07/29 11:57:03;;;;;;;2.70;2.28;;;25.80;51.40;;;;;;4967740;28;20053;-66
2021/07/29 11:59:46;;;;;;;3.00;2.80;;;25.90;51.30;;;;;;4970008;28;20101;-66
2021/07/29 12:02:12;;;;;;;2.42;2.22;;;25.90;49.50;;;;;;4969695;28;20055;-66
2021/07/29 12:04:43;;;;;;;2.67;2.47;;;26.00;51.30;;;;;;4967088;28;20070;-66
2021/07/29 12:07:09;;;;;;;3.10;2.60;;;26.00;51.50;;;;;;4969663;28;20414;-66
2021/07/29 12:09:40;;;;;;;2.72;2.53;;;26.10;51.70;;;;;;4969184;28;20066;-66
2021/07/29 12:12:06;;;;;;;2.70;2.50;;;26.10;51.40;;;;;;4968350;28;20430;-66
2021/07/29 12:14:32;;;;;;;3.22;2.50;;;26.20;51.40;;;;;;4969019;28;20073;-66
2021/07/29 12:16:58;;;;;;;4.78;2.65;;;26.30;51.00;;;;;;4967680;28;20077;-66
2021/07/29 12:19:24;;;;;;;2.45;2.25;;;26.40;50.20;;;;;;4966908;28;20031;-66
2021/07/29 12:21:51;;;;;;;3.05;2.67;;;26.40;50.20;;;;;;4968218;28;20084;-66
2021/07/29 12:24:17;;;;;;;2.75;2.55;;;26.40;50.00;;;;;;4967816;28;20031;-66
2021/07/29 12:27:08;;;;;;;3.97;2.60;;;26.50;49.80;;;;;;4969221;28;20592;-66
2021/07/29 12:29:41;;;;;;;2.40;2.25;;;26.50;48.80;;;;;;4967548;28;20035;-66
2021/07/29 12:32:29;;;;;;;2.17;2.08;;;26.60;49.50;;;;;;4967729;28;20516;-66
2021/07/29 12:34:55;;;;;;;2.83;2.60;;;26.60;49.80;;;;;;4964206;28;20046;-66
2021/07/29 12:37:35;;;;;;;2.60;2.40;;;26.60;50.10;;;;;;4969404;28;20038;-66
2021/07/29 12:40:02;;;;;;;2.70;2.50;;;26.60;48.60;;;;;;4969878;28;20031;-66
2021/07/29 12:42:30;;;;;;;3.72;2.65;;;26.60;50.40;;;;;;4967503;28;20453;-66
2021/07/29 12:45:08;;;;;;;3.47;2.38;;;26.60;49.80;;;;;;4969927;28;20027;-66
2021/07/29 12:47:34;;;;;;;2.70;2.50;;;26.70;49.00;;;;;;4967117;28;20064;-66
2021/07/29 12:49:59;;;;;;;3.75;2.50;;;26.70;49.20;;;;;;4970393;28;20494;-66
2021/07/29 12:52:25;;;;;;;3.17;2.60;;;26.60;48.60;;;;;;4966970;28;20046;-66